Latest Weather Observations for Butlers Gorge

IDT60801

Issued at 2:05 am EST Thursday 17 April 2014 (issued every 30 minutes, with the page automatically refreshed every 10 minutes)

About weather observations | Map of weather stations | Latest weather observations for TAS | Other Formats
Station Details ID: 096003 Name: BUTLERS GORGE Lat: -42.28 Lon: 146.28 Height: 667.0 m
Data from the previous 72 hours. | See also: Recent months at Butlers Gorge
Date/Time
EST
Temp
°C
App
Temp
°C
Dew
Point
Rel
Hum
%
Delta-T
°C
Wind Press
QNH
hPa
Press
MSL
hPa
Rain
since 9 am
mm
Dir
 
Spd
km/h
Gust
km/h
Spd
kts
Gust
kts
17/02:00am 0.2 -1.8 -0.1 98 0.1 NNE 0 0 0 0 - - 0.2
17/01:30am 0.7 -1.2 0.4 98 0.1 WSW 0 0 0 0 - - 0.2
17/01:00am 1.5 -0.3 1.4 99 0.0 CALM 0 0 0 0 - - 0.2
17/12:30am 1.1 -0.8 0.8 98 0.1 CALM 0 0 0 0 - - 0.2
17/12:00am 1.1 -0.8 0.7 97 0.2 WSW 0 0 0 0 - - 0.2
 
Date/Time
EST
Temp
°C
App
Temp
°C
Dew
Point
Rel
Hum
%
Delta-T
°C
Wind Press
QNH
hPa
Press
MSL
hPa
Rain
since 9 am
mm
Dir
 
Spd
km/h
Gust
km/h
Spd
kts
Gust
kts
16/11:30pm 1.7 -0.1 1.3 97 0.2 CALM 0 0 0 0 - - 0.2
16/11:00pm 2.9 1.3 2.6 98 0.1 CALM 0 0 0 0 - - 0.2
16/10:30pm 3.1 1.6 2.8 98 0.1 CALM 0 0 0 0 - - 0.2
16/10:00pm 3.6 2.2 3.3 98 0.1 CALM 0 0 0 0 - - 0.2
16/09:30pm 3.9 2.5 3.5 97 0.2 CALM 0 0 0 0 - - 0.2
16/09:00pm 4.6 3.3 4.2 97 0.2 CALM 0 0 0 0 - - 0.2
16/08:30pm 5.7 4.6 5.3 97 0.2 CALM 0 0 0 0 - - 0.2
16/08:00pm 6.2 5.2 5.8 97 0.2 CALM 0 0 0 0 - - 0.2
16/07:30pm 6.3 5.3 5.6 95 0.3 CALM 0 0 0 0 - - 0.2
16/07:00pm 7.0 6.1 6.1 94 0.4 CALM 0 0 0 0 - - 0.2
16/06:30pm 7.9 7.1 6.7 92 0.6 CALM 0 0 0 0 - - 0.2
16/06:00pm 9.0 8.4 7.3 89 0.8 CALM 0 0 0 0 - - 0.2
16/05:30pm 10.6 9.6 7.5 81 1.5 NE 2 7 1 4 - - 0.2
16/05:00pm 13.1 11.4 8.4 73 2.4 E 7 11 4 6 - - 0.2
16/04:30pm 14.5 13.0 8.5 67 3.1 E 6 13 3 7 - - 0.2
16/04:00pm 15.1 13.5 7.9 62 3.7 NE 6 9 3 5 - - 0.2
16/03:30pm 15.9 13.2 3.7 44 5.8 WNW 7 13 4 7 - - 0.2
16/03:00pm 16.0 12.8 3.1 42 6.1 NW 9 17 5 9 - - 0.2
16/02:30pm 16.5 13.5 1.8 37 6.8 NNW 7 13 4 7 - - 0.2
16/02:00pm 15.8 13.0 2.9 42 6.1 NW 7 15 4 8 - - 0.2
16/01:30pm 15.6 13.0 4.0 46 5.6 W 7 13 4 7 - - 0.2
16/01:00pm 15.0 12.4 4.4 49 5.1 WNW 7 13 4 7 - - 0.2
16/12:30pm 14.9 12.5 5.1 52 4.8 WNW 7 13 4 7 - - 0.2
16/12:00pm 13.9 12.2 7.7 66 3.2 ENE 6 9 3 5 - - 0.2
16/11:30am 12.6 12.0 7.3 70 2.7 CALM 0 0 0 0 - - 0.2
16/11:00am 10.9 9.5 7.4 79 1.7 NNE 4 7 2 4 - - 0.2
16/10:30am 8.7 8.1 7.6 93 0.5 CALM 0 0 0 0 - - 0.2
16/10:00am 7.1 5.6 7.0 99 0.0 ENE 4 7 2 4 - - 0.0
16/09:30am 5.3 4.2 5.2 99 0.0 CALM 0 0 0 0 - - 0.0
16/09:00am 3.7 2.3 3.6 99 0.0 CALM 0 0 0 0 - - 0.0
16/08:30am 2.7 1.1 2.6 99 0.0 CALM 0 0 0 0 - - 0.0
16/08:00am 1.9 0.2 1.8 99 0.0 NE 0 7 0 4 - - 0.0
16/07:30am 1.3 -0.5 1.2 99 0.0 CALM 0 0 0 0 - - 0.0
16/07:00am 0.6 -1.3 0.5 99 0.0 CALM 0 0 0 0 - - 0.0
16/06:30am 0.5 -1.4 0.4 99 0.0 CALM 0 0 0 0 - - 0.0
16/06:00am -0.2 -2.2 -0.3 99 0.0 CALM 0 0 0 0 - - 0.0
16/05:30am 0.1 -1.9 0.0 99 0.0 CALM 0 0 0 0 - - 0.0
16/05:00am -0.6 -2.7 -0.9 98 0.1 CALM 0 0 0 0 - - 0.0
16/04:30am -0.6 -2.7 -0.9 98 0.1 CALM 0 0 0 0 - - 0.0
16/04:00am 0.1 -1.9 -0.2 98 0.1 CALM 0 0 0 0 - - 0.0
16/03:30am 0.1 -1.9 -0.2 98 0.1 CALM 0 0 0 0 - - 0.0
16/03:00am 0.5 -1.5 0.2 98 0.1 CALM 0 0 0 0 - - 0.0
16/02:30am 0.8 -1.1 0.5 98 0.1 CALM 0 0 0 0 - - 0.0
16/02:00am 1.3 -0.5 1.2 99 0.0 CALM 0 0 0 0 - - 0.0
16/01:30am 1.4 -0.4 1.3 99 0.0 CALM 0 0 0 0 - - 0.0
16/01:00am 1.2 -0.6 0.9 98 0.1 CALM 0 0 0 0 - - 0.0
16/12:30am 1.8 0.1 1.7 99 0.0 CALM 0 0 0 0 - - 0.0
16/12:00am 1.5 -0.3 1.2 98 0.1 CALM 0 0 0 0 - - 0.0
 
Date/Time
EST
Temp
°C
App
Temp
°C
Dew
Point
Rel
Hum
%
Delta-T
°C
Wind Press
QNH
hPa
Press
MSL
hPa
Rain
since 9 am
mm
Dir
 
Spd
km/h
Gust
km/h
Spd
kts
Gust
kts
15/11:30pm 2.0 0.3 1.7 98 0.1 CALM 0 0 0 0 - - 0.0
15/11:00pm 2.2 0.5 1.9 98 0.1 CALM 0 0 0 0 - - 0.0
15/10:30pm 2.4 0.7 2.0 97 0.2 CALM 0 0 0 0 - - 0.0
15/10:00pm 3.2 1.7 2.9 98 0.1 CALM 0 0 0 0 - - 0.0
15/09:30pm 3.7 2.3 3.3 97 0.2 CALM 0 0 0 0 - - 0.0
15/09:00pm 4.3 3.0 3.9 97 0.2 CALM 0 0 0 0 - - 0.0
15/08:30pm 4.9 3.6 4.3 96 0.3 CALM 0 0 0 0 - - 0.0
15/08:00pm 5.6 4.4 4.7 94 0.4 CALM 0 0 0 0 - - 0.0
15/07:30pm 6.3 5.1 4.6 89 0.8 CALM 0 0 0 0 - - 0.0
15/07:00pm 7.3 5.1 5.4 88 0.9 NE 6 7 3 4 - - 0.0
15/06:30pm 8.6 6.5 5.9 83 1.3 NE 6 7 3 4 - - 0.0
15/06:00pm 9.8 7.6 6.2 78 1.7 E 7 13 4 7 - - 0.0
15/05:30pm 10.2 8.1 6.7 79 1.7 E 7 13 4 7 - - 0.0
15/05:00pm 10.6 8.6 6.9 78 1.8 E 7 19 4 10 - - 0.0
15/04:30pm 11.4 8.7 7.3 76 2.0 E 11 19 6 10 - - 0.0
15/04:00pm 12.1 9.4 7.2 72 2.5 ESE 11 19 6 10 - - 0.0
15/03:30pm 12.0 8.8 6.9 71 2.5 E 13 19 7 10 - - 0.0
15/03:00pm 12.2 9.8 8.5 78 1.9 E 11 17 6 9 - - 0.0
15/02:30pm 11.7 8.7 7.6 76 2.1 ENE 13 19 7 10 - - 0.0
15/02:00pm 12.4 9.3 7.1 70 2.7 E 13 20 7 11 - - 0.0
15/01:30pm 12.6 9.6 7.9 73 2.4 ENE 13 19 7 10 - - 0.0
15/01:00pm 12.0 8.9 7.3 73 2.4 E 13 19 7 10 - - 0.0
15/12:30pm 11.3 8.7 7.6 78 1.9 E 11 17 6 9 - - 0.0
15/12:00pm 10.9 8.7 8.0 82 1.5 E 9 13 5 7 - - 0.0
15/11:30am 10.7 8.4 7.6 81 1.5 ENE 9 15 5 8 - - 0.0
15/11:00am 10.0 7.7 7.4 84 1.3 E 9 13 5 7 - - 0.0
15/10:30am 9.6 7.3 7.4 86 1.1 ENE 9 13 5 7 - - 0.0
15/10:00am 9.1 6.7 7.2 88 0.9 E 9 15 5 8 - - 0.0
15/09:30am 8.7 6.4 7.3 91 0.7 ESE 9 13 5 7 - - 0.0
15/09:00am 8.6 6.6 7.2 91 0.7 E 7 11 4 6 - - 0.0
15/08:30am 8.3 6.3 7.1 92 0.6 E 7 11 4 6 - - 0.0
15/08:00am 8.1 6.3 7.2 94 0.4 E 6 7 3 4 - - 0.0
15/07:30am 7.7 5.7 7.0 95 0.3 ENE 7 13 4 7 - - 0.0
15/07:00am 7.7 5.9 7.1 96 0.3 E 6 7 3 4 - - 0.0
15/06:30am 7.7 5.9 7.3 97 0.2 ENE 6 9 3 5 - - 0.0
15/06:00am 7.8 6.1 7.4 97 0.2 NE 6 7 3 4 - - 0.0
15/05:30am 7.8 6.1 7.4 97 0.2 E 6 7 3 4 - - 0.0
15/05:00am 7.8 6.1 7.4 97 0.2 E 6 9 3 5 - - 0.0
15/04:30am 7.9 6.2 7.5 97 0.2 NE 6 9 3 5 - - 0.0
15/04:00am 7.9 6.2 7.5 97 0.2 E 6 9 3 5 - - 0.0
15/03:30am 8.0 7.1 7.7 98 0.1 ENE 2 6 1 3 - - 0.0
15/03:00am 8.1 6.8 7.8 98 0.1 ENE 4 9 2 5 - - 0.0
15/02:30am 7.6 5.8 7.3 98 0.1 NE 6 7 3 4 - - 0.0
15/02:00am 7.4 6.7 7.1 98 0.1 CALM 0 0 0 0 - - 0.0
15/01:30am 7.3 6.6 7.0 98 0.1 CALM 0 0 0 0 - - 0.0
15/01:00am 6.6 5.8 6.3 98 0.1 CALM 0 0 0 0 - - 0.0
15/12:30am 6.4 5.5 6.0 97 0.2 CALM 0 0 0 0 - - 0.0
15/12:00am 6.8 6.0 6.4 97 0.2 CALM 0 0 0 0 - - 0.0
 
Date/Time
EST
Temp
°C
App
Temp
°C
Dew
Point
Rel
Hum
%
Delta-T
°C
Wind Press
QNH
hPa
Press
MSL
hPa
Rain
since 9 am
mm
Dir
 
Spd
km/h
Gust
km/h
Spd
kts
Gust
kts
14/11:30pm 6.8 6.0 6.4 97 0.2 CALM 0 0 0 0 - - 0.0
14/11:00pm 6.9 6.1 6.6 98 0.1 CALM 0 0 0 0 - - 0.0
14/10:30pm 6.5 5.7 6.4 99 0.0 CALM 0 0 0 0 - - 0.0
14/10:00pm 5.9 4.9 5.8 99 0.0 CALM 0 0 0 0 - - 0.0
14/09:30pm 5.0 3.8 4.7 98 0.1 CALM 0 0 0 0 - - 0.0
14/09:00pm 4.4 3.1 4.1 98 0.1 CALM 0 0 0 0 - - 0.0
14/08:30pm 4.7 3.4 4.3 97 0.2 CALM 0 0 0 0 - - 0.0
14/08:00pm 4.2 2.8 3.5 95 0.3 CALM 0 0 0 0 - - 0.0
14/07:30pm 5.5 4.4 4.9 96 0.3 CALM 0 0 0 0 - - 0.0
14/07:00pm 6.1 5.0 5.2 94 0.4 CALM 0 0 0 0 - - 0.0
14/06:30pm 7.6 6.9 6.9 95 0.3 CALM 0 0 0 0 - - 0.0
14/06:00pm 8.5 7.9 7.3 92 0.6 CALM 0 0 0 0 - - 0.0
14/05:30pm 9.7 7.9 7.3 85 1.2 NNE 6 7 3 4 - - 0.0
14/05:00pm 11.4 9.7 7.7 78 1.9 NNW 6 9 3 5 - - 0.0
14/04:30pm 13.1 11.7 7.1 67 3.0 WSW 4 7 2 4 - - 0.0
14/04:00pm 13.6 12.2 8.7 72 2.6 SW 6 9 3 5 - - 0.0
14/03:30pm 14.3 13.6 6.9 61 3.7 CALM 0 0 0 0 - - 0.0
14/03:00pm 13.9 12.4 6.7 62 3.6 E 4 7 2 4 - - 0.0
14/02:30pm 14.1 11.8 7.4 64 3.4 W 9 17 5 9 - - 0.0
14/02:00pm 14.2 12.1 8.2 67 3.1 SSE 9 13 5 7 - - 0.0
14/01:30pm 13.9 12.0 7.7 66 3.2 NNE 7 13 4 7 - - 0.0
14/01:00pm 13.8 12.5 7.8 67 3.1 ENE 4 9 2 5 - - 0.0
14/12:30pm 13.7 11.8 7.7 67 3.1 ESE 7 9 4 5 - - 0.0
14/12:00pm 13.5 11.7 7.9 69 2.9 NE 7 11 4 6 - - 0.0
14/11:30am 13.1 11.1 7.3 68 2.9 NNE 7 11 4 6 - - 0.0
14/11:00am 12.8 11.2 7.9 72 2.5 N 6 11 3 6 - - 0.0
14/10:30am 12.4 11.1 7.5 72 2.5 ENE 4 9 2 5 - - 0.0
14/10:00am 11.6 10.3 7.5 76 2.1 SSE 4 7 2 4 - - 0.0
14/09:30am 11.1 9.8 7.8 80 1.7 WNW 4 7 2 4 - - 0.0
14/09:00am 11.2 9.4 7.3 77 1.9 NNE 6 9 3 5 - - 0.0
14/08:30am 9.9 9.5 8.2 89 0.9 CALM 0 0 0 0 - - 0.0
14/08:00am 8.2 7.7 7.9 98 0.1 CALM 0 0 0 0 - - 0.0
14/07:30am 7.2 6.5 6.8 97 0.2 CALM 0 0 0 0 - - 0.0
14/07:00am 7.3 6.6 6.9 97 0.2 CALM 0 0 0 0 - - 0.0
14/06:30am 7.5 6.9 7.2 98 0.1 CALM 0 0 0 0 - - 0.0
14/06:00am 7.6 7.0 7.2 97 0.2 CALM 0 0 0 0 - - 0.0
14/05:30am 7.8 7.2 7.5 98 0.1 CALM 0 0 0 0 - - 0.0
14/05:00am 7.8 7.2 7.5 98 0.1 CALM 0 0 0 0 - - 0.0
14/04:30am 7.7 7.1 7.4 98 0.1 CALM 0 0 0 0 - - 0.0
14/04:00am 7.3 6.6 7.0 98 0.1 CALM 0 0 0 0 - - 0.0
14/03:30am 7.3 6.6 6.9 97 0.2 CALM 0 0 0 0 - - 0.0
14/03:00am 7.5 6.8 7.1 97 0.2 CALM 0 0 0 0 - - 0.0
14/02:30am 7.2 6.5 6.8 97 0.2 CALM 0 0 0 0 - - 0.0

Other Formats:

Comma delimited format used in spreadsheet applications
http://www.bom.gov.au/fwo/IDT60801/IDT60801.94959.axf

JavaScript Object Notation format (JSON) in row-major order
http://www.bom.gov.au/fwo/IDT60801/IDT60801.94959.json